createdAt,value
2023-05-09T05:31:56.013Z,15.30
2023-05-09T05:34:58.168Z,15.60
2023-05-09T05:38:00.038Z,15.50
2023-05-09T05:41:01.647Z,15.90
2023-05-09T05:44:03.331Z,16.30
2023-05-09T05:47:05.323Z,16.40
2023-05-09T05:50:11.530Z,16.60
2023-05-09T05:53:13.574Z,16.80
2023-05-09T05:56:15.652Z,17.50
2023-05-09T05:59:20.398Z,18.10
2023-05-09T06:02:22.395Z,18.60
2023-05-09T06:05:24.107Z,19.00
2023-05-09T06:08:26.133Z,20.20
2023-05-09T06:11:28.320Z,21.80
2023-05-09T06:49:35.689Z,17.70
2023-05-09T06:52:37.502Z,17.80
2023-05-09T06:55:39.418Z,18.10
2023-05-09T06:58:41.161Z,18.00
2023-05-09T07:01:43.149Z,18.00
2023-05-09T07:04:45.023Z,18.00
2023-05-09T07:07:49.895Z,18.20
2023-05-09T07:10:51.688Z,18.60
2023-05-09T07:13:53.448Z,19.20
2023-05-09T07:17:02.226Z,20.00
2023-05-09T07:20:15.468Z,20.20
2023-05-09T07:23:17.326Z,20.00
2023-05-09T07:26:19.012Z,20.30
2023-05-09T07:29:20.845Z,20.20
2023-05-09T07:32:22.631Z,20.50
2023-05-09T07:35:24.297Z,20.60
2023-05-09T07:38:28.851Z,20.60
2023-05-09T07:41:31.471Z,20.70
2023-05-09T07:44:33.240Z,20.40
2023-05-09T07:47:35.063Z,20.50
2023-05-09T07:50:37.021Z,20.90
2023-05-09T07:53:38.796Z,21.10
2023-05-09T07:56:40.645Z,21.60
2023-05-09T07:59:42.660Z,21.00
2023-05-09T08:02:44.724Z,20.60
2023-05-09T08:05:49.367Z,20.60
2023-05-09T08:08:51.330Z,20.60
2023-05-09T08:11:53.138Z,20.50
2023-05-09T08:14:55.287Z,20.20
2023-05-09T08:17:57.838Z,19.50
2023-05-09T08:21:01.358Z,19.10
2023-05-09T08:24:03.741Z,18.90
2023-05-09T08:27:05.774Z,18.90
2023-05-09T08:30:08.705Z,18.90
2023-05-09T08:33:11.650Z,19.00
2023-05-09T08:36:13.821Z,18.90
2023-05-09T08:39:16.032Z,18.80
2023-05-09T08:42:25.492Z,18.90
2023-05-09T08:45:31.890Z,18.70
2023-05-09T08:48:37.712Z,18.80
2023-05-09T08:51:40.891Z,18.60
2023-05-09T08:54:43.613Z,18.60
2023-05-09T08:57:46.307Z,18.20
2023-05-09T09:00:53.677Z,18.10
2023-05-09T09:03:56.517Z,18.30
2023-05-09T09:06:59.460Z,18.60
2023-05-09T09:10:04.085Z,18.70
2023-05-09T09:13:06.563Z,18.80
2023-05-09T09:16:14.588Z,18.90
2023-05-09T09:19:17.868Z,18.90
2023-05-09T09:22:20.883Z,19.50
2023-05-09T09:25:22.885Z,19.30
2023-05-09T09:28:24.751Z,19.70
2023-05-09T09:31:31.561Z,20.20
2023-05-09T09:34:33.816Z,20.60
2023-05-09T09:37:37.052Z,21.70
2023-05-09T09:40:40.602Z,21.70
2023-05-09T09:43:49.009Z,23.00
2023-05-09T09:46:56.129Z,24.10
2023-05-09T09:49:59.925Z,23.10
2023-05-09T09:53:03.166Z,23.30
2023-05-09T09:56:05.898Z,23.60
2023-05-09T09:59:13.279Z,23.30
2023-05-09T10:02:18.100Z,23.60
2023-05-09T10:05:29.312Z,24.20
2023-05-09T10:08:32.745Z,24.30
2023-05-09T10:11:34.634Z,24.80
2023-05-09T10:14:38.568Z,24.50
2023-05-09T10:17:41.410Z,24.60
2023-05-09T10:20:44.826Z,24.80
2023-05-09T10:23:49.943Z,24.50
2023-05-09T10:26:55.954Z,24.00
2023-05-09T10:30:22.437Z,24.00
2023-05-09T10:33:31.118Z,23.90
2023-05-09T10:36:33.366Z,23.70
2023-05-09T10:39:36.577Z,23.70
2023-05-09T10:42:38.719Z,24.60
2023-05-09T10:45:41.813Z,24.60
2023-05-09T10:48:44.746Z,24.10
2023-05-09T10:51:46.612Z,23.40
2023-05-09T10:55:00.592Z,23.20
2023-05-09T10:58:23.774Z,24.80
2023-05-09T11:01:37.702Z,25.40
2023-05-09T11:04:40.850Z,25.60
2023-05-09T11:07:43.446Z,25.00
2023-05-09T11:10:45.296Z,24.50
2023-05-09T11:13:47.735Z,23.80
2023-05-09T11:17:00.214Z,23.30
2023-05-09T11:20:08.729Z,23.20
2023-05-09T11:23:11.951Z,23.60
2023-05-09T11:26:16.111Z,23.30
2023-05-09T11:29:17.994Z,23.30
2023-05-09T11:32:26.999Z,23.20
2023-05-09T11:35:28.788Z,22.40
2023-05-09T11:38:44.718Z,22.50
2023-05-09T11:41:47.689Z,22.30
2023-05-09T11:44:50.600Z,22.20
2023-05-09T11:47:52.964Z,22.10
2023-05-09T11:50:54.855Z,22.50
2023-05-09T11:53:57.253Z,22.40
2023-05-09T11:57:00.577Z,22.70
2023-05-09T12:00:05.077Z,22.90
2023-05-09T12:03:07.610Z,23.00
2023-05-09T12:06:13.791Z,22.80
2023-05-09T12:09:16.385Z,22.70
2023-05-09T12:12:20.907Z,22.50
2023-05-09T12:15:23.842Z,22.30
2023-05-09T12:18:25.568Z,22.80
2023-05-09T12:21:28.614Z,23.10
2023-05-09T12:24:31.731Z,22.70
2023-05-09T12:27:35.853Z,22.60
2023-05-09T12:30:37.711Z,22.90
2023-05-09T12:33:39.782Z,23.10
2023-05-09T12:36:43.953Z,23.10
2023-05-09T12:40:08.678Z,23.00
2023-05-09T12:43:10.763Z,23.50
2023-05-09T12:46:12.643Z,23.00
2023-05-09T12:49:22.072Z,23.00
2023-05-09T12:52:27.151Z,23.40
2023-05-09T12:55:29.118Z,22.90
2023-05-09T12:58:31.920Z,22.60
2023-05-09T13:01:36.257Z,22.90
2023-05-09T13:04:37.965Z,23.00
2023-05-09T13:07:41.242Z,22.80
2023-05-09T13:10:43.036Z,23.00
2023-05-09T13:13:44.898Z,22.90
2023-05-09T13:16:46.983Z,22.90
2023-05-09T13:19:48.745Z,23.30
2023-05-09T13:22:51.048Z,23.50
2023-05-09T13:25:52.681Z,23.40
2023-05-09T13:28:54.496Z,23.60
2023-05-09T13:31:56.916Z,23.50
2023-05-09T13:34:58.834Z,23.30
2023-05-09T13:38:01.130Z,23.20
2023-05-09T13:41:02.900Z,22.20
2023-05-09T13:44:04.911Z,22.20
2023-05-09T13:47:07.884Z,22.00
2023-05-09T13:50:10.124Z,21.60
2023-05-09T13:53:12.098Z,20.90
2023-05-09T13:56:13.873Z,20.70
2023-05-09T13:59:15.583Z,21.20
2023-05-09T14:02:17.277Z,21.70
2023-05-09T14:05:19.334Z,22.00
2023-05-09T14:08:21.402Z,21.30
2023-05-09T14:11:23.498Z,21.90
2023-05-09T14:14:25.832Z,22.20
2023-05-09T14:17:27.714Z,22.00
2023-05-09T14:20:29.341Z,21.40
2023-05-09T14:23:31.226Z,21.00
2023-05-09T14:26:32.807Z,20.50
2023-05-09T14:29:37.343Z,20.70
2023-05-09T14:32:40.417Z,20.70
2023-05-09T14:35:42.054Z,21.00
2023-05-09T14:38:44.214Z,21.30
2023-05-09T14:41:49.005Z,21.40
2023-05-09T14:44:50.711Z,21.40
2023-05-09T14:47:53.322Z,21.50
2023-05-09T14:50:56.861Z,21.60
2023-05-09T14:53:58.996Z,21.20
2023-05-09T14:57:01.969Z,21.40
2023-05-09T15:00:13.054Z,21.60
2023-05-09T15:03:18.772Z,21.70
2023-05-09T15:06:20.675Z,21.50
2023-05-09T15:09:22.604Z,21.10
2023-05-09T15:12:24.243Z,20.60
2023-05-09T15:15:26.224Z,20.70
2023-05-09T15:18:28.815Z,20.40
2023-05-09T15:21:30.521Z,20.20
2023-05-09T15:24:32.127Z,20.30
2023-05-09T15:27:33.863Z,20.30
2023-05-09T15:30:38.317Z,20.70
2023-05-09T15:33:40.080Z,20.80
2023-05-09T15:36:41.806Z,21.10
2023-05-09T15:39:45.451Z,21.30
2023-05-09T15:42:48.315Z,21.20
2023-05-09T15:45:50.250Z,20.80
2023-05-09T15:48:53.434Z,20.80
2023-05-09T15:51:57.020Z,20.50
2023-05-09T15:54:59.473Z,20.50
2023-05-09T15:58:01.121Z,20.90
